createdAt,value
2023-01-03T00:00:14.731Z,0.60
2023-01-03T00:05:16.824Z,0.80
2023-01-03T00:10:19.007Z,0.60
2023-01-03T00:15:21.052Z,0.60
2023-01-03T00:20:23.216Z,0.40
2023-01-03T00:25:26.825Z,0.57
2023-01-03T00:30:29.212Z,0.63
2023-01-03T00:35:31.625Z,0.43
2023-01-03T00:40:33.818Z,0.63
2023-01-03T00:45:38.847Z,0.70
2023-01-03T00:50:40.861Z,0.50
2023-01-03T00:55:42.972Z,0.70
2023-01-03T01:00:44.942Z,0.40
2023-01-03T01:05:46.921Z,0.37
2023-01-03T01:11:02.067Z,0.57
2023-01-03T01:16:18.166Z,0.40
2023-01-03T01:21:28.148Z,0.60
2023-01-03T01:26:30.668Z,0.77
2023-01-03T01:31:33.369Z,0.60
2023-01-03T01:36:38.053Z,0.40
2023-01-03T01:42:00.462Z,0.60
2023-01-03T01:47:03.211Z,0.70
2023-01-03T01:52:06.353Z,0.50
2023-01-03T01:57:14.772Z,0.50
2023-01-03T02:02:24.231Z,0.93
2023-01-03T02:07:26.701Z,0.73
2023-01-03T02:13:13.529Z,0.60
2023-01-03T02:18:46.856Z,0.50
2023-01-03T02:24:12.175Z,0.50
2023-01-03T02:29:23.436Z,0.70
2023-01-03T02:34:49.806Z,0.50
2023-01-03T02:40:00.909Z,0.80
2023-01-03T02:45:15.820Z,0.50
2023-01-03T02:50:22.402Z,0.60
2023-01-03T02:55:29.820Z,0.60
2023-01-03T03:00:35.153Z,0.47
2023-01-03T03:05:45.807Z,0.50
2023-01-03T03:11:07.804Z,0.90
2023-01-03T03:16:41.077Z,0.70
2023-01-03T03:22:02.502Z,0.60
2023-01-03T03:27:28.826Z,0.60
2023-01-03T03:32:34.339Z,0.50
2023-01-03T03:37:40.644Z,0.50
2023-01-03T03:43:16.663Z,0.60
2023-01-03T03:49:05.549Z,0.63
2023-01-03T03:54:16.081Z,0.67
2023-01-03T03:59:24.552Z,0.67
2023-01-03T04:04:33.374Z,0.67
2023-01-03T04:09:36.026Z,0.80
2023-01-03T04:14:38.379Z,0.73
2023-01-03T04:19:40.786Z,1.00
2023-01-03T04:24:43.210Z,0.60
2023-01-03T04:29:45.791Z,0.80
2023-01-03T04:34:48.274Z,0.77
2023-01-03T04:39:50.693Z,0.80
2023-01-03T04:44:53.430Z,0.90
2023-01-03T04:49:55.860Z,0.90
2023-01-03T04:54:58.270Z,0.80
2023-01-03T05:00:00.984Z,0.83
2023-01-03T05:05:03.620Z,0.90
2023-01-03T05:10:06.517Z,0.80
2023-01-03T05:15:09.475Z,0.93
2023-01-03T05:20:30.609Z,0.70
2023-01-03T05:25:51.295Z,0.73
2023-01-03T05:30:53.820Z,1.00
2023-01-03T05:35:56.484Z,0.80
2023-01-03T05:40:59.206Z,0.90
2023-01-03T05:46:02.066Z,0.80
2023-01-03T05:51:05.043Z,0.90
2023-01-03T05:56:07.638Z,0.90
2023-01-03T06:01:11.779Z,0.93
2023-01-03T06:06:15.917Z,0.90
2023-01-03T06:11:18.500Z,1.00
2023-01-03T06:16:40.239Z,1.10
2023-01-03T06:21:42.324Z,0.87
2023-01-03T06:26:44.338Z,1.10
2023-01-03T06:31:46.864Z,1.00
2023-01-03T06:36:50.416Z,1.00
2023-01-03T06:41:52.820Z,1.10
2023-01-03T06:47:14.030Z,1.37
2023-01-03T06:52:35.977Z,1.30
2023-01-03T06:57:38.626Z,1.03
2023-01-03T07:02:41.181Z,1.10
2023-01-03T07:07:43.898Z,0.97
2023-01-03T07:13:06.583Z,1.00
2023-01-03T07:18:09.016Z,1.33
2023-01-03T07:23:13.320Z,1.00
2023-01-03T07:28:16.937Z,1.30
2023-01-03T07:33:19.790Z,1.10
2023-01-03T07:38:22.218Z,1.10
2023-01-03T07:43:37.155Z,1.60
2023-01-03T07:48:40.441Z,0.97
2023-01-03T07:53:43.848Z,1.30
2023-01-03T07:58:47.654Z,1.17
2023-01-03T08:03:50.463Z,1.20
2023-01-03T08:09:12.116Z,1.20
2023-01-03T08:14:14.537Z,1.30
2023-01-03T08:19:17.117Z,1.57
2023-01-03T08:24:19.513Z,1.30
2023-01-03T08:29:21.959Z,1.40
2023-01-03T08:34:30.110Z,1.80
2023-01-03T08:39:38.317Z,1.90
2023-01-03T08:44:41.675Z,1.80
2023-01-03T08:49:44.351Z,2.30
2023-01-03T08:54:47.209Z,1.90
2023-01-03T08:59:49.651Z,1.73
2023-01-03T09:04:52.047Z,1.80
2023-01-03T09:09:54.488Z,1.90
2023-01-03T09:14:56.993Z,2.20
2023-01-03T09:19:59.474Z,2.27
2023-01-03T09:25:02.263Z,2.20
2023-01-03T09:30:05.493Z,1.97
2023-01-03T09:35:08.809Z,2.03
2023-01-03T09:40:11.894Z,2.17
2023-01-03T09:45:19.251Z,1.90
2023-01-03T09:50:39.368Z,1.87
2023-01-03T09:56:18.370Z,2.07
2023-01-03T10:01:51.930Z,1.90
2023-01-03T10:07:03.339Z,1.90
2023-01-03T10:12:18.478Z,2.20
2023-01-03T10:17:34.316Z,2.27
2023-01-03T10:22:38.157Z,1.83
2023-01-03T10:28:06.777Z,1.90
2023-01-03T10:33:31.042Z,2.40
2023-01-03T10:38:38.417Z,1.80
2023-01-03T10:43:57.542Z,1.77
2023-01-03T10:49:27.787Z,1.80
2023-01-03T10:54:53.395Z,2.00
2023-01-03T10:59:55.436Z,1.80
2023-01-03T11:05:16.154Z,1.80
2023-01-03T11:10:19.636Z,1.97
2023-01-03T11:15:40.045Z,1.80
2023-01-03T11:21:17.836Z,1.93
2023-01-03T11:26:45.386Z,2.80
2023-01-03T11:32:10.927Z,1.90
2023-01-03T11:37:27.365Z,1.40
2023-01-03T11:42:55.113Z,1.50
2023-01-03T11:48:22.562Z,1.27
2023-01-03T11:53:44.078Z,1.10
2023-01-03T11:58:56.319Z,1.23
2023-01-03T12:04:20.417Z,1.10
2023-01-03T12:09:39.341Z,0.67
2023-01-03T12:15:12.297Z,0.80
2023-01-03T12:20:32.221Z,0.83
2023-01-03T12:25:42.438Z,0.73
2023-01-03T12:31:05.498Z,0.80
2023-01-03T12:36:45.262Z,0.60
2023-01-03T12:42:17.435Z,0.60
2023-01-03T12:47:30.796Z,0.97
2023-01-03T12:52:35.409Z,1.30
2023-01-03T12:57:49.715Z,0.90
2023-01-03T13:03:02.318Z,0.90
2023-01-03T13:08:12.154Z,0.47
2023-01-03T13:13:19.430Z,0.80
2023-01-03T13:18:21.474Z,0.70
2023-01-03T13:23:56.323Z,0.60
2023-01-03T13:29:35.334Z,1.50
2023-01-03T13:34:37.525Z,1.43
2023-01-03T13:39:47.974Z,0.73
2023-01-03T13:44:51.254Z,0.70
2023-01-03T13:49:54.204Z,0.63
2023-01-03T13:54:59.119Z,0.70
2023-01-03T14:00:14.072Z,0.60
2023-01-03T14:05:38.060Z,0.70
2023-01-03T14:11:16.583Z,0.50
2023-01-03T14:16:43.340Z,0.70
2023-01-03T14:22:30.374Z,0.70
2023-01-03T14:27:40.545Z,0.67
2023-01-03T14:32:43.083Z,0.60
2023-01-03T14:37:47.362Z,0.60
2023-01-03T14:42:49.772Z,0.33
2023-01-03T14:47:55.290Z,0.70
2023-01-03T14:53:01.649Z,0.50
2023-01-03T14:58:31.073Z,0.80
2023-01-03T15:03:43.636Z,0.77
2023-01-03T15:08:47.770Z,0.50
2023-01-03T15:13:55.708Z,1.00
2023-01-03T15:19:18.780Z,0.80
2023-01-03T15:24:23.850Z,0.70
2023-01-03T15:29:43.020Z,0.90
2023-01-03T15:34:45.840Z,0.90
2023-01-03T15:39:54.733Z,0.77
2023-01-03T15:44:57.789Z,0.70
2023-01-03T15:50:02.944Z,0.80
2023-01-03T15:55:05.842Z,0.90
2023-01-03T16:00:16.118Z,1.03
2023-01-03T16:05:22.418Z,0.90
2023-01-03T16:10:25.216Z,0.90
2023-01-03T16:15:28.529Z,1.13
2023-01-03T16:20:33.249Z,1.07
2023-01-03T16:25:35.809Z,1.33
2023-01-03T16:30:38.206Z,1.60
2023-01-03T16:35:40.619Z,1.47
2023-01-03T16:40:45.073Z,1.37
2023-01-03T16:45:48.194Z,1.70
2023-01-03T16:50:53.396Z,1.60
2023-01-03T16:55:56.366Z,1.93
2023-01-03T17:00:58.889Z,1.60
2023-01-03T17:06:01.902Z,1.80
2023-01-03T17:11:06.813Z,5.17
2023-01-03T17:16:15.536Z,1.37
2023-01-03T17:21:27.389Z,1.50
2023-01-03T17:26:33.118Z,2.40
2023-01-03T17:31:35.905Z,3.50
2023-01-03T17:36:38.691Z,2.30
2023-01-03T17:42:00.039Z,3.70
2023-01-03T17:47:34.470Z,3.10
2023-01-03T17:52:38.831Z,1.67
2023-01-03T17:57:41.370Z,1.40
2023-01-03T18:02:44.265Z,1.33
2023-01-03T18:07:47.096Z,1.60
2023-01-03T18:12:49.633Z,1.70
2023-01-03T18:17:52.654Z,1.87
2023-01-03T18:22:55.218Z,2.30
2023-01-03T18:28:01.684Z,5.33
2023-01-03T18:33:04.454Z,2.73
2023-01-03T18:38:06.943Z,1.73
2023-01-03T18:43:13.794Z,2.47
2023-01-03T18:48:19.019Z,2.00
2023-01-03T18:53:28.742Z,2.83
2023-01-03T18:58:37.686Z,3.33
2023-01-03T19:03:41.513Z,2.70
2023-01-03T19:08:44.678Z,2.00
2023-01-03T19:13:54.839Z,2.27
2023-01-03T19:18:57.993Z,3.20
2023-01-03T19:24:15.680Z,3.60
2023-01-03T19:29:37.406Z,3.57
2023-01-03T19:34:39.855Z,2.90
2023-01-03T19:39:42.635Z,2.53
2023-01-03T19:44:45.561Z,2.47
2023-01-03T19:49:49.030Z,3.20
2023-01-03T19:54:52.163Z,2.40
2023-01-03T19:59:58.453Z,2.50
2023-01-03T20:05:01.825Z,2.67
2023-01-03T20:10:04.894Z,3.23
2023-01-03T20:15:19.928Z,2.10
2023-01-03T20:20:25.422Z,2.40
2023-01-03T20:25:32.988Z,2.80
2023-01-03T20:30:36.033Z,2.70
2023-01-03T20:41:01.965Z,3.03
2023-01-03T20:46:05.067Z,2.40
2023-01-03T20:51:10.076Z,2.40
2023-01-03T20:56:13.802Z,2.30
2023-01-03T21:01:16.377Z,2.53
2023-01-03T21:06:25.437Z,4.33
2023-01-03T21:11:30.778Z,2.87
2023-01-03T21:16:39.147Z,2.67
2023-01-03T21:21:43.824Z,2.70
2023-01-03T21:26:46.747Z,2.90
2023-01-03T21:31:53.478Z,2.63
2023-01-03T21:36:56.131Z,3.10
2023-01-03T21:42:17.266Z,3.73
2023-01-03T21:47:19.643Z,3.03
2023-01-03T21:52:22.372Z,2.83
2023-01-03T21:57:25.091Z,2.83
2023-01-03T22:02:46.278Z,3.37
2023-01-03T22:07:48.900Z,3.03
2023-01-03T22:12:57.297Z,3.30
2023-01-03T22:17:59.718Z,3.10
2023-01-03T22:23:02.385Z,3.10
2023-01-03T22:28:05.188Z,3.50
2023-01-03T22:33:07.765Z,3.10
2023-01-03T22:38:10.182Z,3.50
2023-01-03T22:43:12.659Z,3.70
2023-01-03T22:48:15.270Z,3.57
2023-01-03T22:53:17.902Z,3.20
2023-01-03T22:58:20.705Z,4.00
2023-01-03T23:03:23.225Z,4.23
2023-01-03T23:08:25.597Z,4.40
2023-01-03T23:13:28.002Z,3.90
2023-01-03T23:18:33.752Z,4.33
2023-01-03T23:23:36.336Z,4.43
2023-01-03T23:28:38.726Z,4.33
2023-01-03T23:33:41.270Z,4.10
2023-01-03T23:38:43.737Z,3.80
2023-01-03T23:43:46.540Z,4.10
2023-01-03T23:48:53.677Z,4.43
2023-01-03T23:53:56.231Z,3.93
2023-01-03T23:58:58.752Z,3.77
